createdAt,value
2022-09-28T00:00:01.822Z,12.43
2022-09-28T00:05:26.169Z,12.42
2022-09-28T00:10:27.245Z,12.42
2022-09-28T00:15:28.542Z,12.39
2022-09-28T00:20:29.702Z,12.37
2022-09-28T00:25:31.481Z,12.36
2022-09-28T00:30:32.740Z,12.33
2022-09-28T00:35:34.209Z,12.34
2022-09-28T00:40:42.026Z,12.36
2022-09-28T00:45:44.423Z,12.36
2022-09-28T00:50:46.249Z,12.34
2022-09-28T00:55:53.922Z,12.32
2022-09-28T01:00:58.446Z,12.27
2022-09-28T01:06:03.385Z,12.27
2022-09-28T01:11:04.899Z,12.23
2022-09-28T01:16:26.735Z,12.17
2022-09-28T01:21:28.044Z,12.08
2022-09-28T01:26:29.012Z,11.97
2022-09-28T01:31:34.414Z,11.90
2022-09-28T01:36:45.658Z,11.83
2022-09-28T01:41:50.510Z,11.75
2022-09-28T01:46:52.943Z,11.67
2022-09-28T01:52:12.563Z,11.57
2022-09-28T01:57:20.823Z,11.51
2022-09-28T02:02:29.405Z,11.48
2022-09-28T02:07:37.637Z,11.46
2022-09-28T02:12:45.392Z,11.46
2022-09-28T02:17:47.036Z,11.43
2022-09-28T02:22:55.263Z,11.41
2022-09-28T02:28:04.279Z,11.27
2022-09-28T02:33:28.050Z,11.03
2022-09-28T02:38:32.441Z,10.82
2022-09-28T02:44:04.715Z,10.72
2022-09-28T02:49:43.695Z,10.66
2022-09-28T02:55:16.840Z,10.61
2022-09-28T03:00:21.960Z,10.57
2022-09-28T03:05:48.454Z,10.57
2022-09-28T03:11:04.726Z,10.60
2022-09-28T03:16:12.264Z,10.62
2022-09-28T03:21:14.984Z,10.64
2022-09-28T03:26:16.247Z,10.66
2022-09-28T03:31:17.388Z,10.65
2022-09-28T03:36:18.965Z,10.64
2022-09-28T03:41:20.756Z,10.65
2022-09-28T03:46:21.924Z,10.63
2022-09-28T03:51:23.141Z,10.63
2022-09-28T03:56:24.151Z,10.62
2022-09-28T04:01:25.331Z,10.60
2022-09-28T04:06:26.854Z,10.58
2022-09-28T04:11:42.874Z,10.57
2022-09-28T04:16:51.395Z,10.58
2022-09-28T04:21:52.443Z,10.60
2022-09-28T04:27:13.435Z,10.62
2022-09-28T04:32:14.479Z,10.66
2022-09-28T04:37:15.605Z,10.71
2022-09-28T04:42:16.686Z,10.76
2022-09-28T04:47:17.814Z,10.79
2022-09-28T04:52:18.920Z,10.82
2022-09-28T04:57:20.456Z,10.83
2022-09-28T05:02:21.881Z,10.84
2022-09-28T05:07:23.079Z,10.88
2022-09-28T05:12:24.519Z,10.88
2022-09-28T05:17:25.679Z,10.84
2022-09-28T05:22:26.654Z,10.82
2022-09-28T05:27:27.711Z,10.84
2022-09-28T05:32:29.203Z,10.86
2022-09-28T05:37:30.603Z,10.86
2022-09-28T05:42:31.655Z,10.86
2022-09-28T05:47:36.791Z,10.86
2022-09-28T05:52:38.222Z,10.88
2022-09-28T05:57:40.291Z,10.90
2022-09-28T06:02:41.345Z,10.95
2022-09-28T06:07:42.712Z,11.01
2022-09-28T06:12:44.795Z,11.08
2022-09-28T06:17:46.063Z,11.15
2022-09-28T06:22:51.100Z,11.20
2022-09-28T06:27:57.462Z,11.25
2022-09-28T06:33:00.890Z,11.31
2022-09-28T06:38:02.371Z,11.43
2022-09-28T06:43:09.513Z,11.51
2022-09-28T06:48:10.882Z,11.54
2022-09-28T06:53:13.575Z,11.52
2022-09-28T06:58:17.071Z,11.50
2022-09-28T07:03:20.886Z,11.48
2022-09-28T07:08:28.067Z,11.47
2022-09-28T07:13:48.779Z,11.46
2022-09-28T07:18:50.575Z,11.37
2022-09-28T07:23:54.194Z,11.26
2022-09-28T07:28:55.639Z,11.24
2022-09-28T07:33:58.044Z,11.22
2022-09-28T07:38:59.112Z,11.16
2022-09-28T07:44:05.292Z,11.21
2022-09-28T07:49:09.787Z,11.27
2022-09-28T07:54:13.483Z,11.40
2022-09-28T07:59:17.463Z,11.52
2022-09-28T08:04:19.747Z,11.55
2022-09-28T08:09:20.816Z,11.55
2022-09-28T08:14:22.362Z,11.54
2022-09-28T08:19:24.203Z,11.51
2022-09-28T08:24:30.174Z,11.59
2022-09-28T08:29:31.264Z,11.69
2022-09-28T08:34:33.450Z,11.80
2022-09-28T08:39:35.291Z,12.08
2022-09-28T08:44:47.303Z,12.55
2022-09-28T08:49:49.522Z,12.83
2022-09-28T08:54:53.747Z,13.07
2022-09-28T08:59:57.679Z,13.21
2022-09-28T09:05:01.979Z,13.21
2022-09-28T09:10:35.532Z,13.52
2022-09-28T09:16:01.863Z,13.76
2022-09-28T09:21:15.157Z,13.94
2022-09-28T09:26:26.441Z,14.04
2022-09-28T09:32:04.646Z,14.09
2022-09-28T09:37:24.448Z,14.10
2022-09-28T09:42:44.165Z,14.40
2022-09-28T09:47:53.009Z,14.71
2022-09-28T09:53:04.136Z,15.28
2022-09-28T09:58:25.816Z,16.32
2022-09-28T10:03:31.900Z,16.55
2022-09-28T10:08:57.693Z,16.35
2022-09-28T10:13:58.964Z,15.95
2022-09-28T10:19:00.414Z,15.63
2022-09-28T10:24:01.990Z,15.60
2022-09-28T10:29:10.811Z,15.74
2022-09-28T10:34:14.344Z,15.66
2022-09-28T10:39:28.384Z,15.49
2022-09-28T10:44:33.126Z,15.00
2022-09-28T10:49:46.608Z,14.52
2022-09-28T10:54:52.896Z,14.33
2022-09-28T10:59:54.090Z,14.42
2022-09-28T11:05:00.622Z,14.51
2022-09-28T11:10:03.370Z,14.53
2022-09-28T11:15:06.694Z,14.24
2022-09-28T11:20:28.208Z,13.77
2022-09-28T11:25:30.608Z,13.44
2022-09-28T11:30:41.648Z,13.24
2022-09-28T11:35:59.462Z,13.07
2022-09-28T11:41:22.426Z,13.08
2022-09-28T11:46:32.952Z,13.57
2022-09-28T11:51:36.872Z,14.34
2022-09-28T11:56:41.850Z,14.91
2022-09-28T12:02:12.969Z,15.08
2022-09-28T12:07:38.955Z,15.13
2022-09-28T12:12:56.922Z,15.15
2022-09-28T12:18:05.348Z,15.16
2022-09-28T12:23:14.541Z,15.32
2022-09-28T12:28:41.334Z,15.31
2022-09-28T12:33:47.163Z,15.14
2022-09-28T12:39:23.951Z,14.99
2022-09-28T12:44:41.085Z,14.98
2022-09-28T12:50:37.435Z,15.16
2022-09-28T12:55:35.614Z,15.22
2022-09-28T13:00:58.807Z,15.12
2022-09-28T13:06:25.000Z,14.97
2022-09-28T13:11:40.936Z,14.89
2022-09-28T13:17:19.513Z,14.91
2022-09-28T13:22:35.309Z,14.92
2022-09-28T13:27:45.702Z,15.09
2022-09-28T13:32:49.148Z,15.15
2022-09-28T13:38:16.776Z,15.07
2022-09-28T13:43:30.994Z,14.88
2022-09-28T13:48:58.459Z,14.77
2022-09-28T13:54:16.587Z,15.15
2022-09-28T13:59:28.215Z,15.15
2022-09-28T14:04:54.280Z,14.93
2022-09-28T14:10:20.339Z,14.83
2022-09-28T14:15:42.033Z,14.54
2022-09-28T14:20:59.358Z,14.20
2022-09-28T14:26:40.897Z,13.99
2022-09-28T14:31:43.026Z,13.97
2022-09-28T14:37:07.526Z,14.66
2022-09-28T14:42:16.622Z,15.14
2022-09-28T14:47:32.762Z,15.20
2022-09-28T14:53:12.793Z,14.91
2022-09-28T14:58:19.390Z,14.63
2022-09-28T15:03:22.341Z,14.30
2022-09-28T15:08:35.322Z,14.19
2022-09-28T15:13:40.191Z,14.32
2022-09-28T15:19:23.955Z,14.53
2022-09-28T15:24:32.858Z,14.34
2022-09-28T15:29:35.250Z,14.14
2022-09-28T15:34:55.414Z,13.81
2022-09-28T15:39:59.206Z,13.52
2022-09-28T15:45:22.195Z,13.28
2022-09-28T15:50:32.287Z,12.94
2022-09-28T15:55:38.728Z,12.66
2022-09-28T16:00:40.901Z,12.45
2022-09-28T16:05:59.924Z,12.31
2022-09-28T16:11:20.056Z,12.19
2022-09-28T16:16:30.368Z,12.05
2022-09-28T16:21:41.809Z,11.91
2022-09-28T16:26:43.316Z,11.76
2022-09-28T16:31:52.093Z,11.58
2022-09-28T16:36:54.742Z,11.50
2022-09-28T16:42:02.594Z,11.52
2022-09-28T16:47:06.862Z,11.51
2022-09-28T16:52:11.768Z,11.49
2022-09-28T16:57:14.431Z,11.49
2022-09-28T17:02:42.209Z,11.50
2022-09-28T17:07:39.882Z,11.53
2022-09-28T17:12:41.259Z,11.53
2022-09-28T17:17:42.366Z,11.51
2022-09-28T17:22:43.353Z,11.44
2022-09-28T17:27:46.940Z,11.37
2022-09-28T17:32:48.841Z,11.31
2022-09-28T17:37:49.928Z,11.25
2022-09-28T17:42:54.321Z,11.22
2022-09-28T17:47:55.608Z,11.20
2022-09-28T17:52:59.041Z,11.16
2022-09-28T17:58:01.515Z,11.10
2022-09-28T18:03:02.751Z,11.03
2022-09-28T18:08:06.015Z,10.96
2022-09-28T18:13:07.346Z,10.89
2022-09-28T18:18:09.673Z,10.81
2022-09-28T18:23:11.070Z,10.76
2022-09-28T18:28:12.968Z,10.73
2022-09-28T18:33:15.224Z,10.71
2022-09-28T18:38:16.701Z,10.71
2022-09-28T18:43:17.832Z,10.73
2022-09-28T18:48:18.916Z,10.73
2022-09-28T18:53:20.142Z,10.71
2022-09-28T18:58:21.318Z,10.65
2022-09-28T19:03:22.603Z,10.63
2022-09-28T19:08:27.572Z,10.60
2022-09-28T19:13:29.031Z,10.57
2022-09-28T19:18:30.573Z,10.57
2022-09-28T19:23:32.450Z,10.60
2022-09-28T19:28:34.133Z,10.61
2022-09-28T19:33:36.389Z,10.60
2022-09-28T19:38:38.620Z,10.56
2022-09-28T19:43:43.395Z,10.52
2022-09-28T19:48:44.584Z,10.50
2022-09-28T19:53:45.597Z,10.51
2022-09-28T19:58:46.777Z,10.49
2022-09-28T20:03:47.902Z,10.43
2022-09-28T20:08:49.599Z,10.37
2022-09-28T20:13:54.657Z,10.28
2022-09-28T20:18:59.858Z,10.19
2022-09-28T20:24:01.312Z,10.10
2022-09-28T20:29:06.850Z,9.96
2022-09-28T20:34:09.031Z,9.82
2022-09-28T20:39:10.986Z,9.70
2022-09-28T20:44:12.122Z,9.61
2022-09-28T20:49:13.193Z,9.55
2022-09-28T20:54:14.459Z,9.51
2022-09-28T20:59:15.835Z,9.45
2022-09-28T21:04:16.985Z,9.46
2022-09-28T21:09:18.255Z,9.51
2022-09-28T21:14:20.497Z,9.52
2022-09-28T21:19:23.499Z,9.52
2022-09-28T21:24:24.772Z,9.50
2022-09-28T21:29:26.084Z,9.47
2022-09-28T21:34:27.174Z,9.49
2022-09-28T21:39:28.177Z,9.52
2022-09-28T21:44:29.413Z,9.47
2022-09-28T21:49:30.849Z,9.46
2022-09-28T21:54:33.743Z,9.49
2022-09-28T21:59:34.958Z,9.56
2022-09-28T22:04:36.019Z,9.63
2022-09-28T22:09:37.205Z,9.71
2022-09-28T22:14:38.218Z,9.77
2022-09-28T22:19:40.913Z,9.79
2022-09-28T22:24:42.103Z,9.75
2022-09-28T22:29:43.825Z,9.69
2022-09-28T22:34:44.959Z,9.62
2022-09-28T22:39:46.650Z,9.55
2022-09-28T22:44:48.182Z,9.56
2022-09-28T22:49:49.342Z,9.56
2022-09-28T22:54:50.512Z,9.57
2022-09-28T22:59:51.730Z,9.58
2022-09-28T23:04:52.871Z,9.55
2022-09-28T23:09:57.026Z,9.47
2022-09-28T23:14:58.256Z,9.38
2022-09-28T23:19:59.331Z,9.35
2022-09-28T23:25:00.448Z,9.34
2022-09-28T23:30:01.589Z,9.37
2022-09-28T23:35:03.131Z,9.37
2022-09-28T23:40:06.147Z,9.34
2022-09-28T23:45:07.945Z,9.31
2022-09-28T23:50:09.148Z,9.33
2022-09-28T23:55:10.401Z,9.35
